Latest Weather Observations for Gold Coast Seaway

IDQ60801

Issued at 11:32 pm EST Saturday 3 December 2016 (issued every 30 minutes, with the page automatically refreshed every 10 minutes)

About weather observations | Map of weather stations | Latest weather observations for QLD | Other Formats
Station Details ID: 040764 Name: GOLD COAST SEAWAY Lat: -27.94 Lon: 153.43 Height: 2.98 m
Data from the previous 72 hours. | See also: Recent months at Gold Coast Seaway
Date/Time
EST
Temp
°C
App
Temp
°C
Dew
Point
°C
Rel
Hum
%
Delta-T
°C
Wind Press
QNH
hPa
Press
MSL
hPa
Rain since
9am
mm
Dir  Spd
km/h
Gust
km/h
Spd
kts
Gust
kts
03/11:30pm 22.6 22.6 22.4 99 0.1 WNW 26 30 14 16 1014.8 1014.8 1.6
03/11:00pm 22.5 23.7 22.5 100 0.0 NW 20 26 11 14 1014.9 1014.9 1.6
03/10:30pm 22.3 24.7 22.3 100 0.0 NW 13 15 7 8 1015.7 1015.7 1.6
03/10:00pm 22.2 24.9 22.2 100 0.0 NNW 11 17 6 9 1016.4 1016.4 1.6
03/09:30pm 21.5 24.3 21.5 100 0.0 E 9 11 5 6 1017.0 1017.0 1.6
03/09:00pm 22.0 23.9 22.0 100 0.0 SSE 15 20 8 11 1018.1 1018.1 1.6
03/08:30pm 22.9 24.5 22.9 100 0.0 SSW 19 24 10 13 1017.6 1017.6 1.6
03/08:13pm 22.8 25.9 22.8 100 0.0 W 11 15 6 8 1016.7 1016.7 1.6
03/08:00pm 22.5 23.3 22.5 100 0.0 NE 22 35 12 19 1014.7 1014.7 1.6
03/07:30pm 22.1 19.5 22.1 100 0.0 NE 39 50 21 27 1013.3 1013.3 1.4
03/07:29pm 22.2 20.0 22.2 100 0.0 NE 37 50 20 27 1013.7 1013.7 1.4
03/07:19pm 23.2 24.8 23.2 100 0.0 NNE 20 30 11 16 1015.5 1015.5 1.4
03/07:00pm 23.8 26.6 23.6 99 0.1 W 15 20 8 11 1017.5 1017.5 0.6
03/06:30pm 23.7 26.4 23.5 99 0.1 SSW 15 26 8 14 1017.6 1017.6 0.0
03/06:18pm 23.5 25.7 23.3 99 0.1 NE 17 26 9 14 1016.2 1016.2 0.0
03/06:00pm 23.2 25.2 22.2 94 0.7 SE 15 20 8 11 1014.2 1014.2 0.0
03/05:44pm 23.5 24.9 22.8 96 0.5 NNE 20 33 11 18 1014.0 1014.0 0.0
03/05:30pm 23.3 22.8 22.8 97 0.3 NNE 30 35 16 19 1011.9 1011.9 0.0
03/05:29pm 23.2 22.9 22.5 96 0.5 NNE 28 35 15 19 1011.8 1011.8 0.0
03/05:00pm 23.3 25.6 22.8 97 0.3 NE 15 17 8 9 1013.0 1013.0 0.0
03/04:30pm 22.7 23.2 22.0 96 0.5 ENE 22 26 12 14 1011.6 1011.6 0.0
03/04:00pm 23.1 22.3 21.7 92 0.9 NE 28 32 15 17 1011.8 1011.8 0.0
03/03:30pm 23.6 22.9 21.1 86 1.6 NNE 26 32 14 17 1011.6 1011.6 0.0
03/03:00pm 24.5 22.4 20.6 79 2.5 NNE 32 35 17 19 1011.2 1011.2 0.0
03/02:30pm 27.0 25.9 21.7 73 3.5 NNE 30 33 16 18 1012.2 1012.2 0.0
03/02:00pm 26.2 24.2 21.2 74 3.3 NNE 33 37 18 20 1011.9 1011.9 0.0
03/01:30pm 26.7 25.1 21.5 73 3.5 NNE 32 35 17 19 1012.6 1012.6 0.0
03/01:00pm 26.5 25.3 21.5 74 3.3 NNE 30 33 16 18 1012.9 1012.9 0.0
03/12:30pm 26.9 25.7 21.6 72 3.5 NNE 30 33 16 18 1013.3 1013.3 0.0
03/12:00pm 26.5 26.0 22.1 77 3.0 NNE 28 32 15 17 1013.5 1013.5 0.0
03/11:30am 26.2 25.5 21.8 77 2.9 NNE 28 30 15 16 1013.9 1013.9 0.0
03/11:00am 26.7 26.3 21.7 74 3.3 NNE 26 30 14 16 1014.2 1014.2 0.0
03/10:30am 25.6 25.2 21.7 79 2.6 NNE 26 28 14 15 1014.6 1014.6 0.0
03/10:00am 24.2 24.8 21.3 84 1.9 N 20 26 11 14 1015.0 1015.0 0.0
03/09:30am 24.5 26.4 22.0 86 1.7 NNE 15 19 8 10 1015.2 1015.2 0.0
03/09:00am 24.5 26.0 22.0 86 1.7 N 17 19 9 10 1015.1 1015.1 0.0
03/08:30am 23.4 25.5 22.4 94 0.7 N 15 17 8 9 1015.3 1015.3 0.0
03/08:00am 22.9 25.8 22.4 97 0.3 N 11 13 6 7 1015.2 1015.2 0.0
03/07:30am 22.8 26.1 22.6 99 0.1 N 9 11 5 6 1015.1 1015.1 0.0
03/07:00am 22.4 25.5 22.2 99 0.1 N 9 9 5 5 1014.9 1014.9 0.0
03/06:30am 22.1 24.8 22.1 100 0.0 N 11 13 6 7 1014.3 1014.3 0.0
03/06:00am 22.0 25.0 22.0 100 0.0 N 9 11 5 6 1014.1 1014.1 0.0
03/05:30am 22.1 25.2 22.1 100 0.0 N 9 11 5 6 1013.8 1013.8 0.0
03/05:00am 21.7 24.6 21.7 100 0.0 N 9 11 5 6 1013.3 1013.3 0.0
03/04:30am 21.6 24.0 21.6 100 0.0 N 11 13 6 7 1012.9 1012.9 0.0
03/04:00am 21.9 24.1 21.9 100 0.0 N 13 15 7 8 1012.5 1012.5 0.0
03/03:30am 22.0 23.9 22.0 100 0.0 N 15 17 8 9 1012.2 1012.2 0.0
03/03:00am 21.8 24.7 21.8 100 0.0 N 9 15 5 8 1012.2 1012.2 0.0
03/02:30am 21.8 24.7 21.8 100 0.0 N 9 11 5 6 1012.4 1012.4 0.0
03/02:00am 21.5 24.3 21.5 100 0.0 NNE 9 11 5 6 1012.5 1012.5 0.0
03/01:30am 21.8 25.1 21.8 100 0.0 N 7 9 4 5 1012.8 1012.8 0.0
03/01:00am 21.3 24.3 21.3 100 0.0 NNE 7 9 4 5 1012.8 1012.8 0.0
03/12:30am 21.9 24.9 21.9 100 0.0 NNE 9 11 5 6 1013.0 1013.0 0.0
03/12:00am 21.3 24.3 21.3 100 0.0 NNE 7 9 4 5 1013.4 1013.4 0.0
 
Date/Time
EST
Temp
°C
App
Temp
°C
Dew
Point
°C
Rel
Hum
%
Delta-T
°C
Wind Press
QNH
hPa
Press
MSL
hPa
Rain since
9am
mm
Dir  Spd
km/h
Gust
km/h
Spd
kts
Gust
kts
02/11:30pm 21.3 24.3 21.3 100 0.0 NNE 7 9 4 5 1013.4 1013.4 0.0
02/11:00pm 21.4 24.1 21.4 100 0.0 NNE 9 11 5 6 1013.4 1013.4 0.0
02/10:30pm 21.1 23.9 20.9 99 0.1 N 7 9 4 5 1013.5 1013.5 0.0
02/10:00pm 21.6 24.3 21.4 99 0.1 NNE 9 13 5 7 1013.3 1013.3 0.0
02/09:30pm 22.4 25.5 22.2 99 0.1 N 9 20 5 11 1013.2 1013.2 0.0
02/09:00pm 22.6 21.5 22.4 99 0.1 NNE 32 37 17 20 1012.0 1012.0 0.0
02/08:58pm 22.6 21.5 22.4 99 0.1 NNE 32 37 17 20 1012.1 1012.1 0.0
02/08:30pm 23.2 26.4 23.0 99 0.1 SSW 11 19 6 10 1013.9 1013.9 0.0
02/08:00pm 22.1 23.5 21.9 99 0.1 N 17 24 9 13 1012.6 1012.6 0.0
02/07:30pm 22.0 23.8 21.8 99 0.1 N 15 19 8 10 1012.5 1012.5 0.0
02/07:00pm 21.9 23.1 21.4 97 0.3 N 17 20 9 11 1011.7 1011.7 0.0
02/06:30pm 22.3 22.6 21.5 95 0.5 N 22 26 12 14 1011.3 1011.3 0.0
02/06:00pm 22.6 22.3 21.1 91 1.0 N 24 28 13 15 1010.8 1010.8 0.0
02/05:30pm 22.8 22.3 20.7 88 1.4 N 24 30 13 16 1010.3 1010.3 0.0
02/05:00pm 23.3 22.6 20.2 83 2.0 N 24 30 13 16 1009.9 1009.9 0.0
02/04:30pm 23.8 22.8 20.5 82 2.1 N 26 30 14 16 1009.6 1009.6 0.0
02/04:00pm 24.2 22.8 20.5 80 2.4 N 28 32 15 17 1009.4 1009.4 0.0
02/03:30pm 24.4 22.1 20.1 77 2.8 N 32 35 17 19 1009.3 1009.3 0.0
02/03:00pm 24.5 22.2 20.2 77 2.8 N 32 35 17 19 1009.5 1009.5 0.0
02/02:30pm 24.9 22.8 20.6 77 2.8 N 32 37 17 20 1009.7 1009.7 0.0
02/02:00pm 24.7 22.0 20.4 77 2.8 NNE 35 39 19 21 1009.8 1009.8 0.0
02/01:30pm 25.0 22.3 20.5 76 2.9 NNE 35 39 19 21 1010.2 1010.2 0.0
02/01:00pm 26.1 24.1 21.1 74 3.3 NNE 33 39 18 21 1010.0 1010.0 0.0
02/12:30pm 25.6 23.4 20.8 75 3.2 NNE 33 37 18 20 1010.3 1010.3 0.0
02/12:00pm 26.2 23.5 20.5 71 3.7 NNE 35 39 19 21 1010.4 1010.4 0.0
02/11:30am 26.1 24.2 20.9 73 3.4 NNE 32 35 17 19 1010.8 1010.8 0.0
02/11:00am 25.9 24.4 20.2 71 3.7 NE 28 32 15 17 1011.1 1011.1 0.0
02/10:30am 26.4 25.6 20.0 68 4.2 NNE 24 30 13 16 1011.4 1011.4 0.0
02/10:00am 26.1 25.0 20.2 70 3.8 NNE 26 30 14 16 1011.5 1011.5 0.0
02/09:30am 26.6 27.0 20.7 70 3.9 NNE 19 26 10 14 1011.8 1011.8 0.0
02/09:00am 26.4 26.5 18.3 61 5.1 NNW 15 24 8 13 1012.0 1012.0 8.6
02/08:30am 25.8 25.1 18.2 63 4.8 NNW 19 28 10 15 1012.2 1012.2 8.6
02/08:00am 25.3 24.8 18.7 67 4.2 NNW 19 26 10 14 1012.1 1012.1 8.4
02/07:30am 24.3 24.6 19.6 75 3.0 NNW 17 28 9 15 1012.2 1012.2 8.4
02/07:00am 23.4 23.2 19.8 80 2.3 NNW 20 28 11 15 1011.9 1011.9 8.4
02/06:30am 22.6 23.0 19.8 84 1.8 NW 17 22 9 12 1011.9 1011.9 8.4
02/06:00am 22.0 23.5 20.5 91 1.0 NW 13 15 7 8 1011.7 1011.7 8.4
02/05:30am 21.5 23.0 20.5 94 0.6 NW 13 15 7 8 1011.6 1011.6 8.4
02/05:00am 21.2 23.3 21.0 99 0.1 NW 11 13 6 7 1011.3 1011.3 8.4
02/04:30am 21.0 23.1 20.2 95 0.5 N 9 11 5 6 1010.8 1010.8 8.4
02/04:00am 21.1 22.7 19.9 93 0.8 NNW 11 15 6 8 1010.6 1010.6 8.4
02/03:30am 21.2 22.6 20.4 95 0.5 NNW 13 15 7 8 1010.5 1010.5 8.4
02/03:00am 21.5 23.8 21.3 99 0.1 NNW 11 13 6 7 1010.3 1010.3 8.4
02/02:30am 21.6 24.0 21.6 100 0.0 NW 11 13 6 7 1010.2 1010.2 8.4
02/02:00am 21.3 24.0 21.3 100 0.0 NW 9 11 5 6 1010.2 1010.2 8.4
02/01:30am 21.8 24.6 21.6 99 0.1 NW 9 13 5 7 1010.4 1010.4 8.4
02/01:00am 21.8 24.2 21.6 99 0.1 NW 11 13 6 7 1010.5 1010.5 8.4
02/12:30am 21.9 24.4 21.7 99 0.1 NW 11 13 6 7 1010.8 1010.8 8.4
02/12:00am 21.9 24.8 21.7 99 0.1 NW 9 11 5 6 1011.1 1011.1 8.4
 
Date/Time
EST
Temp
°C
App
Temp
°C
Dew
Point
°C
Rel
Hum
%
Delta-T
°C
Wind Press
QNH
hPa
Press
MSL
hPa
Rain since
9am
mm
Dir  Spd
km/h
Gust
km/h
Spd
kts
Gust
kts
01/11:30pm 22.1 24.7 21.9 99 0.1 NW 11 13 6 7 1011.2 1011.2 8.4
01/11:00pm 22.3 24.6 22.0 98 0.2 NNW 13 15 7 8 1011.6 1011.6 8.4
01/10:30pm 22.2 24.4 21.9 98 0.2 NNW 13 17 7 9 1011.8 1011.8 8.4
01/10:00pm 22.4 24.8 22.2 99 0.1 NNW 13 19 7 10 1012.0 1012.0 8.4
01/09:30pm 22.0 24.2 21.8 99 0.1 NNW 13 19 7 10 1012.1 1012.1 8.4
01/09:00pm 21.8 24.6 21.6 99 0.1 NNW 9 13 5 7 1012.0 1012.0 8.4
01/08:30pm 21.8 23.7 21.3 97 0.3 N 13 15 7 8 1011.8 1011.8 8.4
01/08:00pm 21.8 23.8 21.6 99 0.1 N 13 24 7 13 1011.5 1011.5 8.4
01/07:30pm 21.8 23.4 21.5 98 0.2 N 15 20 8 11 1011.1 1011.1 8.4
01/07:00pm 21.9 21.4 21.4 97 0.3 N 26 32 14 17 1010.7 1010.7 8.4
01/06:30pm 22.1 20.7 21.9 99 0.1 NNE 32 37 17 20 1010.2 1010.2 8.4
01/06:00pm 22.3 20.8 22.1 99 0.1 NNE 33 37 18 20 1009.2 1009.2 8.4
01/05:30pm 21.9 22.0 21.9 100 0.0 ENE 24 30 13 16 1009.5 1009.5 8.4
01/05:08pm 21.9 23.2 21.7 99 0.1 ENE 17 32 9 17 1009.9 1009.9 7.8
01/05:00pm 22.8 25.0 21.8 94 0.7 WNW 13 28 7 15 1010.3 1010.3 4.2
01/04:43pm 22.8 23.7 20.9 89 1.2 NE 17 30 9 16 1009.1 1009.1 0.0
01/04:30pm 22.7 21.4 20.6 88 1.4 NNE 28 30 15 16 1006.7 1006.7 0.0
01/04:00pm 22.7 20.3 20.0 85 1.7 NE 32 37 17 20 1007.0 1007.0 0.0
01/03:30pm 23.4 20.8 19.5 79 2.5 NNE 32 35 17 19 1007.4 1007.4 0.0
01/03:00pm 24.4 21.1 19.2 73 3.3 NNE 35 39 19 21 1007.2 1007.2 0.0
01/02:30pm 26.0 22.7 19.2 66 4.4 NNE 35 41 19 22 1007.4 1007.4 0.0
01/02:00pm 26.0 22.5 18.7 64 4.7 NNE 35 41 19 22 1008.2 1008.2 0.0
01/01:30pm 26.9 23.1 19.0 62 5.1 NNE 37 41 20 22 1008.6 1008.6 0.0
01/01:00pm 26.1 23.9 18.8 64 4.7 NNE 28 32 15 17 1009.4 1009.4 0.0
01/12:30pm 26.3 24.2 18.9 63 4.7 NNE 28 30 15 16 1009.7 1009.7 0.0
01/12:00pm 26.6 24.1 19.7 66 4.5 NNE 32 35 17 19 1009.7 1009.7 0.0
01/11:30am 27.2 24.1 18.5 59 5.6 NNE 32 35 17 19 1010.3 1010.3 0.0
01/11:00am 27.4 24.9 18.9 59 5.5 NNE 30 35 16 19 1010.6 1010.6 0.0
01/10:30am 26.3 23.9 18.2 61 5.1 NNE 28 33 15 18 1011.2 1011.2 0.0
01/10:00am 27.2 26.3 18.2 58 5.7 NNW 20 28 11 15 1011.6 1011.6 0.0
01/09:30am 26.0 24.8 17.6 60 5.3 NNW 20 28 11 15 1011.8 1011.8 0.0
01/09:00am 25.5 24.1 17.9 63 4.8 NNW 22 30 12 16 1012.0 1012.0 1.8
01/08:30am 25.4 24.1 18.1 64 4.6 NNW 22 30 12 16 1011.7 1011.7 1.8
01/08:00am 24.1 23.2 18.1 69 3.8 NNW 20 28 11 15 1011.8 1011.8 1.8
01/07:30am 23.8 22.6 18.4 72 3.4 NW 22 33 12 18 1011.9 1011.9 1.8
01/07:00am 23.2 22.5 18.7 76 2.8 NW 20 26 11 14 1011.8 1011.8 1.8
01/06:30am 22.0 22.5 19.2 84 1.8 NW 15 17 8 9 1011.8 1011.8 1.8
01/06:00am 20.9 22.2 19.2 90 1.1 NW 11 13 6 7 1011.5 1011.5 1.8
01/05:30am 20.0 21.5 19.0 94 0.6 WNW 9 11 5 6 1011.2 1011.2 1.8
01/05:00am 19.6 21.1 18.9 96 0.4 WNW 9 11 5 6 1010.9 1010.9 1.8
01/04:30am 19.5 20.2 18.8 96 0.4 WNW 13 13 7 7 1010.7 1010.7 1.8
01/04:00am 19.4 20.9 18.9 97 0.3 WNW 9 13 5 7 1010.8 1010.8 1.8
01/03:30am 18.9 20.4 17.6 92 0.8 W 6 9 3 5 1010.6 1010.6 1.8
01/03:00am 19.4 20.8 17.9 91 0.9 W 7 11 4 6 1010.5 1010.5 1.6
01/02:30am 19.4 20.6 18.2 93 0.7 W 9 11 5 6 1010.7 1010.7 1.6
01/02:00am 19.5 21.0 18.0 91 0.9 W 7 9 4 5 1010.9 1010.9 1.6
01/01:30am 19.8 21.5 18.5 92 0.8 W 7 11 4 6 1010.9 1010.9 1.6
01/01:00am 20.0 22.5 19.0 94 0.6 NW 4 9 2 5 1010.9 1010.9 1.6
01/12:30am 19.9 22.6 18.7 93 0.7 SSE 2 9 1 5 1011.1 1011.1 1.6
01/12:00am 20.4 22.4 18.7 90 1.1 S 6 9 3 5 1011.6 1011.6 1.6

Other Formats:

Comma delimited format used in spreadsheet applications
http://www.bom.gov.au/fwo/IDQ60801/IDQ60801.94580.axf

JavaScript Object Notation format (JSON) in row-major order
http://www.bom.gov.au/fwo/IDQ60801/IDQ60801.94580.json